Terminal Aerodrome Forecast
Issued by NWS Portland, OR

Home | Current Version | Previous Version | Text Only | Print | Product List | Glossary On
Versions: 1 2 3 4 5 6 7 8 9 10 11 12
000
FTUS46 KPQR 221733
TAFSLE
TAF
KSLE 221733Z 2218/2318 06006KT P6SM SCT019
     FM222100 01011G19KT P6SM SKC
     FM230300 36008KT P6SM SKC
     FM230600 02005KT P6SM SKC=

USA.gov is the U.S. government's official web portal to all federal, state and local government web resources and services.